CYFS

Fort Simpson Airport

Fort Simpson, Northwest Territories, Canada
METAR CYFS 220600Z 33006KT 8SM -SN OVC040 M03/M06 A3006 RMK SC8 SLP194
Observed Flight Rules
Apr-22 @ 06:00 UTC (57 minutes ago) Visual Flight Rules
Wind Visibility Clouds Conditions
330° at 6 knots 8 miles
  • Overcast at 4,000' AGL
  • Light Snow
Temperatures Readings
Current -3°C / 27°F
Dewpoint -6°C / 21°F
Humidity 80%
Altimeter 30.06" Hg
Pressure 1019.4 hPa
Elevation 169
METAR CYFS 220600Z 33006KT 8SM -SN OVC040 M03/M06 A3006 RMK SC8 SLP194
Observed Flight Rules
Apr-22 @ 06:00 UTC
(57 minutes ago)
VFR
Wind Visibility
330° at 6 knots 8 miles
Clouds
  • Overcast at 4,000' AGL
Conditions
  • Light Snow
Temperature Dewpoint
-3°C / 27°F -6°C / 21°F
Humidity Altimeter Pressure
80% 30.06" Hg 1019.4 hPa